sensor_id;sensor_type;location;lat;lon;timestamp;P1;durP1;ratioP1;P2;durP2;ratioP2
434;SDS011;204;48.942;9.256;2023-03-04T00:01:02;49.03;;;37.07;;
434;SDS011;204;48.942;9.256;2023-03-04T00:03:27;58.30;;;39.50;;
434;SDS011;204;48.942;9.256;2023-03-04T00:05:53;59.87;;;40.70;;
434;SDS011;204;48.942;9.256;2023-03-04T00:08:18;54.13;;;42.00;;
434;SDS011;204;48.942;9.256;2023-03-04T00:10:44;56.27;;;41.63;;
434;SDS011;204;48.942;9.256;2023-03-04T00:13:10;54.90;;;41.77;;
434;SDS011;204;48.942;9.256;2023-03-04T00:15:35;53.00;;;40.73;;
434;SDS011;204;48.942;9.256;2023-03-04T00:18:01;59.20;;;42.00;;
434;SDS011;204;48.942;9.256;2023-03-04T00:20:26;58.37;;;42.57;;
434;SDS011;204;48.942;9.256;2023-03-04T00:22:52;60.90;;;43.50;;
434;SDS011;204;48.942;9.256;2023-03-04T00:25:18;66.43;;;43.93;;
434;SDS011;204;48.942;9.256;2023-03-04T00:27:43;58.33;;;42.00;;
434;SDS011;204;48.942;9.256;2023-03-04T00:30:09;59.60;;;43.37;;
434;SDS011;204;48.942;9.256;2023-03-04T00:32:35;61.05;;;43.70;;
434;SDS011;204;48.942;9.256;2023-03-04T00:35:00;57.60;;;42.03;;
434;SDS011;204;48.942;9.256;2023-03-04T00:37:26;58.93;;;44.63;;
434;SDS011;204;48.942;9.256;2023-03-04T00:39:52;58.17;;;44.80;;
434;SDS011;204;48.942;9.256;2023-03-04T00:42:17;62.47;;;43.83;;
434;SDS011;204;48.942;9.256;2023-03-04T00:44:43;54.00;;;44.40;;
434;SDS011;204;48.942;9.256;2023-03-04T00:47:08;58.83;;;41.50;;
434;SDS011;204;48.942;9.256;2023-03-04T00:49:34;58.93;;;42.57;;
434;SDS011;204;48.942;9.256;2023-03-04T00:52:01;64.90;;;45.67;;
434;SDS011;204;48.942;9.256;2023-03-04T00:54:27;58.83;;;44.07;;
434;SDS011;204;48.942;9.256;2023-03-04T00:56:52;60.77;;;43.63;;
434;SDS011;204;48.942;9.256;2023-03-04T00:59:18;60.50;;;45.30;;
434;SDS011;204;48.942;9.256;2023-03-04T01:01:43;62.20;;;43.43;;
434;SDS011;204;48.942;9.256;2023-03-04T01:04:09;58.13;;;43.37;;
434;SDS011;204;48.942;9.256;2023-03-04T01:06:34;62.90;;;45.40;;
434;SDS011;204;48.942;9.256;2023-03-04T01:09:00;58.40;;;43.90;;
434;SDS011;204;48.942;9.256;2023-03-04T01:11:26;55.43;;;41.70;;
434;SDS011;204;48.942;9.256;2023-03-04T01:13:51;64.77;;;45.30;;
434;SDS011;204;48.942;9.256;2023-03-04T01:16:17;59.93;;;43.57;;
434;SDS011;204;48.942;9.256;2023-03-04T01:18:42;56.57;;;41.50;;
434;SDS011;204;48.942;9.256;2023-03-04T01:21:09;57.00;;;42.55;;
434;SDS011;204;48.942;9.256;2023-03-04T01:23:34;62.10;;;43.30;;
434;SDS011;204;48.942;9.256;2023-03-04T01:26:00;56.23;;;42.47;;
434;SDS011;204;48.942;9.256;2023-03-04T01:28:26;57.13;;;42.40;;
434;SDS011;204;48.942;9.256;2023-03-04T01:30:51;63.73;;;43.33;;
434;SDS011;204;48.942;9.256;2023-03-04T01:33:17;59.10;;;43.17;;
434;SDS011;204;48.942;9.256;2023-03-04T01:35:43;53.77;;;40.50;;
434;SDS011;204;48.942;9.256;2023-03-04T01:38:08;56.93;;;43.03;;
434;SDS011;204;48.942;9.256;2023-03-04T01:40:34;59.50;;;42.23;;
434;SDS011;204;48.942;9.256;2023-03-04T01:43:00;52.38;;;40.13;;
434;SDS011;204;48.942;9.256;2023-03-04T01:45:26;60.27;;;44.80;;
434;SDS011;204;48.942;9.256;2023-03-04T01:47:52;58.50;;;43.45;;
434;SDS011;204;48.942;9.256;2023-03-04T01:50:23;57.23;;;41.27;;
434;SDS011;204;48.942;9.256;2023-03-04T01:52:57;56.53;;;41.47;;
434;SDS011;204;48.942;9.256;2023-03-04T01:55:23;60.03;;;44.78;;
434;SDS011;204;48.942;9.256;2023-03-04T01:57:50;63.57;;;45.87;;
434;SDS011;204;48.942;9.256;2023-03-04T02:02:52;59.45;;;42.92;;
434;SDS011;204;48.942;9.256;2023-03-04T02:05:22;56.40;;;42.50;;
434;SDS011;204;48.942;9.256;2023-03-04T02:07:49;59.60;;;40.50;;
434;SDS011;204;48.942;9.256;2023-03-04T02:10:16;59.15;;;41.58;;
434;SDS011;204;48.942;9.256;2023-03-04T02:12:42;62.90;;;45.50;;
434;SDS011;204;48.942;9.256;2023-03-04T02:15:08;63.65;;;43.17;;
434;SDS011;204;48.942;9.256;2023-03-04T02:17:34;54.33;;;41.85;;
434;SDS011;204;48.942;9.256;2023-03-04T02:23:00;64.60;;;43.45;;
434;SDS011;204;48.942;9.256;2023-03-04T02:25:30;54.78;;;43.47;;
434;SDS011;204;48.942;9.256;2023-03-04T02:28:01;62.53;;;43.83;;
434;SDS011;204;48.942;9.256;2023-03-04T02:30:26;54.17;;;41.40;;
434;SDS011;204;48.942;9.256;2023-03-04T02:32:52;60.37;;;42.83;;
434;SDS011;204;48.942;9.256;2023-03-04T02:35:18;64.67;;;44.60;;
434;SDS011;204;48.942;9.256;2023-03-04T02:37:45;53.53;;;41.15;;
434;SDS011;204;48.942;9.256;2023-03-04T02:40:27;54.03;;;41.83;;
434;SDS011;204;48.942;9.256;2023-03-04T02:42:57;58.63;;;43.20;;
434;SDS011;204;48.942;9.256;2023-03-04T02:45:43;59.55;;;43.92;;
434;SDS011;204;48.942;9.256;2023-03-04T02:48:09;52.90;;;40.60;;
434;SDS011;204;48.942;9.256;2023-03-04T02:50:46;61.53;;;41.47;;
434;SDS011;204;48.942;9.256;2023-03-04T02:53:14;61.10;;;42.90;;
434;SDS011;204;48.942;9.256;2023-03-04T02:55:40;56.05;;;39.38;;
434;SDS011;204;48.942;9.256;2023-03-04T02:58:07;52.38;;;40.50;;
434;SDS011;204;48.942;9.256;2023-03-04T03:00:33;56.38;;;40.38;;
434;SDS011;204;48.942;9.256;2023-03-04T03:02:59;55.45;;;41.38;;
434;SDS011;204;48.942;9.256;2023-03-04T03:05:28;55.10;;;37.55;;
434;SDS011;204;48.942;9.256;2023-03-04T03:07:56;55.20;;;41.03;;
434;SDS011;204;48.942;9.256;2023-03-04T03:10:22;51.57;;;39.87;;
434;SDS011;204;48.942;9.256;2023-03-04T03:12:48;57.83;;;41.38;;
434;SDS011;204;48.942;9.256;2023-03-04T03:15:14;48.53;;;38.20;;
434;SDS011;204;48.942;9.256;2023-03-04T03:17:40;52.05;;;38.88;;
434;SDS011;204;48.942;9.256;2023-03-04T03:20:06;53.65;;;41.13;;
434;SDS011;204;48.942;9.256;2023-03-04T03:22:32;50.17;;;38.45;;
434;SDS011;204;48.942;9.256;2023-03-04T03:24:58;53.90;;;38.17;;
434;SDS011;204;48.942;9.256;2023-03-04T03:27:23;50.03;;;37.80;;
434;SDS011;204;48.942;9.256;2023-03-04T03:29:49;52.37;;;38.17;;
434;SDS011;204;48.942;9.256;2023-03-04T03:32:15;47.50;;;34.37;;
434;SDS011;204;48.942;9.256;2023-03-04T03:34:43;52.72;;;37.58;;
434;SDS011;204;48.942;9.256;2023-03-04T03:37:08;51.50;;;37.87;;
434;SDS011;204;48.942;9.256;2023-03-04T03:39:34;55.63;;;38.07;;
434;SDS011;204;48.942;9.256;2023-03-04T03:41:59;53.90;;;38.20;;
434;SDS011;204;48.942;9.256;2023-03-04T03:44:25;59.37;;;38.17;;
434;SDS011;204;48.942;9.256;2023-03-04T03:46:51;49.17;;;38.37;;
434;SDS011;204;48.942;9.256;2023-03-04T03:49:16;47.77;;;36.70;;
434;SDS011;204;48.942;9.256;2023-03-04T03:51:42;50.20;;;36.70;;
434;SDS011;204;48.942;9.256;2023-03-04T03:54:08;56.27;;;37.30;;
434;SDS011;204;48.942;9.256;2023-03-04T03:56:33;47.92;;;35.58;;
434;SDS011;204;48.942;9.256;2023-03-04T03:58:59;52.20;;;36.77;;
434;SDS011;204;48.942;9.256;2023-03-04T04:01:24;53.67;;;38.10;;
434;SDS011;204;48.942;9.256;2023-03-04T04:03:50;51.43;;;35.67;;
434;SDS011;204;48.942;9.256;2023-03-04T04:06:16;56.00;;;37.17;;
434;SDS011;204;48.942;9.256;2023-03-04T04:08:41;54.53;;;37.70;;
434;SDS011;204;48.942;9.256;2023-03-04T04:11:08;52.80;;;35.60;;
434;SDS011;204;48.942;9.256;2023-03-04T04:13:35;49.90;;;35.08;;
434;SDS011;204;48.942;9.256;2023-03-04T04:16:00;45.20;;;33.60;;
434;SDS011;204;48.942;9.256;2023-03-04T04:18:26;49.77;;;35.37;;
434;SDS011;204;48.942;9.256;2023-03-04T04:20:52;47.90;;;33.90;;
434;SDS011;204;48.942;9.256;2023-03-04T04:23:17;48.23;;;35.57;;
434;SDS011;204;48.942;9.256;2023-03-04T04:25:43;49.17;;;36.53;;
434;SDS011;204;48.942;9.256;2023-03-04T04:28:09;52.90;;;37.43;;
434;SDS011;204;48.942;9.256;2023-03-04T04:30:34;54.83;;;35.80;;
434;SDS011;204;48.942;9.256;2023-03-04T04:33:00;49.70;;;35.80;;
434;SDS011;204;48.942;9.256;2023-03-04T04:35:28;52.28;;;36.53;;
434;SDS011;204;48.942;9.256;2023-03-04T04:37:58;51.95;;;35.40;;
434;SDS011;204;48.942;9.256;2023-03-04T04:40:23;48.60;;;35.87;;
434;SDS011;204;48.942;9.256;2023-03-04T04:42:49;52.40;;;35.97;;
434;SDS011;204;48.942;9.256;2023-03-04T04:45:14;50.60;;;36.37;;
434;SDS011;204;48.942;9.256;2023-03-04T04:47:40;47.73;;;34.07;;
434;SDS011;204;48.942;9.256;2023-03-04T04:50:05;49.67;;;35.33;;
434;SDS011;204;48.942;9.256;2023-03-04T04:52:34;47.58;;;34.38;;
434;SDS011;204;48.942;9.256;2023-03-04T04:55:00;49.92;;;36.88;;
434;SDS011;204;48.942;9.256;2023-03-04T04:57:26;46.30;;;35.03;;
434;SDS011;204;48.942;9.256;2023-03-04T04:59:51;46.80;;;34.50;;
434;SDS011;204;48.942;9.256;2023-03-04T05:02:17;48.83;;;34.57;;
434;SDS011;204;48.942;9.256;2023-03-04T05:04:42;44.87;;;32.20;;
434;SDS011;204;48.942;9.256;2023-03-04T05:07:08;51.10;;;34.03;;
434;SDS011;204;48.942;9.256;2023-03-04T05:09:33;47.07;;;33.03;;
434;SDS011;204;48.942;9.256;2023-03-04T05:11:59;46.47;;;32.87;;
434;SDS011;204;48.942;9.256;2023-03-04T05:14:24;52.50;;;34.80;;
434;SDS011;204;48.942;9.256;2023-03-04T05:16:50;46.63;;;31.70;;
434;SDS011;204;48.942;9.256;2023-03-04T05:19:17;48.33;;;33.33;;
434;SDS011;204;48.942;9.256;2023-03-04T05:21:43;42.75;;;32.55;;
434;SDS011;204;48.942;9.256;2023-03-04T05:24:08;47.10;;;33.67;;
434;SDS011;204;48.942;9.256;2023-03-04T05:26:34;47.20;;;32.00;;
434;SDS011;204;48.942;9.256;2023-03-04T05:29:00;45.37;;;31.80;;
434;SDS011;204;48.942;9.256;2023-03-04T05:31:26;44.33;;;31.80;;
434;SDS011;204;48.942;9.256;2023-03-04T05:33:51;46.83;;;33.53;;
434;SDS011;204;48.942;9.256;2023-03-04T05:36:17;45.57;;;32.87;;
434;SDS011;204;48.942;9.256;2023-03-04T05:38:42;39.97;;;30.67;;
434;SDS011;204;48.942;9.256;2023-03-04T05:41:08;47.60;;;30.77;;
434;SDS011;204;48.942;9.256;2023-03-04T05:43:34;51.80;;;33.47;;
434;SDS011;204;48.942;9.256;2023-03-04T05:46:01;46.80;;;31.00;;
434;SDS011;204;48.942;9.256;2023-03-04T05:48:28;38.83;;;28.92;;
434;SDS011;204;48.942;9.256;2023-03-04T05:50:54;43.90;;;29.00;;
434;SDS011;204;48.942;9.256;2023-03-04T05:53:21;41.00;;;29.83;;
434;SDS011;204;48.942;9.256;2023-03-04T05:55:47;43.27;;;28.90;;
434;SDS011;204;48.942;9.256;2023-03-04T05:58:13;44.23;;;31.67;;
434;SDS011;204;48.942;9.256;2023-03-04T06:00:39;43.40;;;29.45;;
434;SDS011;204;48.942;9.256;2023-03-04T06:03:05;43.23;;;31.77;;
434;SDS011;204;48.942;9.256;2023-03-04T06:05:30;41.83;;;30.93;;
434;SDS011;204;48.942;9.256;2023-03-04T06:07:56;48.63;;;32.03;;
434;SDS011;204;48.942;9.256;2023-03-04T06:10:22;52.63;;;33.80;;
434;SDS011;204;48.942;9.256;2023-03-04T06:12:47;48.33;;;33.07;;
434;SDS011;204;48.942;9.256;2023-03-04T06:15:13;47.67;;;32.87;;
434;SDS011;204;48.942;9.256;2023-03-04T06:17:39;43.63;;;30.30;;
434;SDS011;204;48.942;9.256;2023-03-04T06:20:05;47.80;;;33.20;;
434;SDS011;204;48.942;9.256;2023-03-04T06:22:32;46.47;;;32.15;;
434;SDS011;204;48.942;9.256;2023-03-04T06:24:58;47.35;;;34.60;;
434;SDS011;204;48.942;9.256;2023-03-04T06:27:24;49.07;;;34.47;;
434;SDS011;204;48.942;9.256;2023-03-04T06:29:49;51.67;;;34.37;;
434;SDS011;204;48.942;9.256;2023-03-04T06:32:15;55.57;;;36.00;;
434;SDS011;204;48.942;9.256;2023-03-04T06:34:40;51.37;;;32.97;;
434;SDS011;204;48.942;9.256;2023-03-04T06:37:06;47.90;;;33.17;;
434;SDS011;204;48.942;9.256;2023-03-04T06:39:32;52.20;;;34.50;;
434;SDS011;204;48.942;9.256;2023-03-04T06:41:57;51.43;;;35.10;;
434;SDS011;204;48.942;9.256;2023-03-04T06:44:23;47.57;;;33.70;;
434;SDS011;204;48.942;9.256;2023-03-04T06:46:48;50.97;;;35.20;;
434;SDS011;204;48.942;9.256;2023-03-04T06:49:14;48.63;;;34.20;;
434;SDS011;204;48.942;9.256;2023-03-04T06:51:40;56.80;;;38.80;;
434;SDS011;204;48.942;9.256;2023-03-04T06:54:05;55.60;;;38.23;;
434;SDS011;204;48.942;9.256;2023-03-04T06:56:31;49.47;;;36.80;;
434;SDS011;204;48.942;9.256;2023-03-04T06:58:56;45.43;;;34.13;;
434;SDS011;204;48.942;9.256;2023-03-04T07:01:26;48.67;;;33.57;;
434;SDS011;204;48.942;9.256;2023-03-04T07:03:53;52.25;;;32.28;;
434;SDS011;204;48.942;9.256;2023-03-04T07:06:21;49.30;;;31.90;;
434;SDS011;204;48.942;9.256;2023-03-04T07:08:50;45.63;;;31.58;;
434;SDS011;204;48.942;9.256;2023-03-04T07:11:16;45.93;;;32.37;;
434;SDS011;204;48.942;9.256;2023-03-04T07:13:42;47.70;;;31.48;;
434;SDS011;204;48.942;9.256;2023-03-04T07:16:10;46.63;;;32.42;;
434;SDS011;204;48.942;9.256;2023-03-04T07:18:37;46.45;;;30.63;;
434;SDS011;204;48.942;9.256;2023-03-04T07:21:04;45.03;;;30.60;;
434;SDS011;204;48.942;9.256;2023-03-04T07:23:30;46.55;;;30.52;;
434;SDS011;204;48.942;9.256;2023-03-04T07:25:56;44.53;;;30.50;;
434;SDS011;204;48.942;9.256;2023-03-04T07:28:21;46.77;;;30.77;;
434;SDS011;204;48.942;9.256;2023-03-04T07:30:47;40.70;;;28.40;;
434;SDS011;204;48.942;9.256;2023-03-04T07:33:13;44.10;;;31.97;;
434;SDS011;204;48.942;9.256;2023-03-04T07:35:39;45.00;;;30.58;;
434;SDS011;204;48.942;9.256;2023-03-04T07:38:05;44.97;;;30.30;;
434;SDS011;204;48.942;9.256;2023-03-04T07:40:31;42.87;;;27.40;;
434;SDS011;204;48.942;9.256;2023-03-04T07:42:56;37.13;;;27.80;;
434;SDS011;204;48.942;9.256;2023-03-04T07:45:22;40.40;;;27.87;;
434;SDS011;204;48.942;9.256;2023-03-04T07:47:49;37.92;;;26.15;;
434;SDS011;204;48.942;9.256;2023-03-04T07:50:15;42.25;;;27.73;;
434;SDS011;204;48.942;9.256;2023-03-04T07:52:42;36.08;;;25.42;;
434;SDS011;204;48.942;9.256;2023-03-04T07:55:10;36.88;;;25.02;;
434;SDS011;204;48.942;9.256;2023-03-04T07:57:38;39.88;;;27.88;;
434;SDS011;204;48.942;9.256;2023-03-04T08:00:04;35.95;;;22.70;;
434;SDS011;204;48.942;9.256;2023-03-04T08:02:30;37.17;;;25.27;;
434;SDS011;204;48.942;9.256;2023-03-04T08:04:56;39.20;;;26.20;;
434;SDS011;204;48.942;9.256;2023-03-04T08:07:22;37.00;;;26.47;;
434;SDS011;204;48.942;9.256;2023-03-04T08:09:47;35.33;;;25.27;;
434;SDS011;204;48.942;9.256;2023-03-04T08:12:13;43.53;;;27.60;;
434;SDS011;204;48.942;9.256;2023-03-04T08:14:39;39.33;;;27.60;;
434;SDS011;204;48.942;9.256;2023-03-04T08:17:04;34.50;;;25.77;;
434;SDS011;204;48.942;9.256;2023-03-04T08:19:30;34.77;;;24.17;;
434;SDS011;204;48.942;9.256;2023-03-04T08:21:55;31.70;;;25.17;;
434;SDS011;204;48.942;9.256;2023-03-04T08:24:21;35.97;;;23.67;;
434;SDS011;204;48.942;9.256;2023-03-04T08:26:47;38.00;;;23.80;;
434;SDS011;204;48.942;9.256;2023-03-04T08:29:17;37.10;;;25.42;;
434;SDS011;204;48.942;9.256;2023-03-04T08:31:47;34.72;;;23.00;;
434;SDS011;204;48.942;9.256;2023-03-04T08:34:14;34.50;;;23.80;;
434;SDS011;204;48.942;9.256;2023-03-04T08:36:40;38.03;;;24.15;;
434;SDS011;204;48.942;9.256;2023-03-04T08:39:07;38.92;;;26.67;;
434;SDS011;204;48.942;9.256;2023-03-04T08:41:33;39.70;;;27.77;;
434;SDS011;204;48.942;9.256;2023-03-04T08:43:59;39.50;;;25.50;;
434;SDS011;204;48.942;9.256;2023-03-04T08:46:25;38.17;;;25.00;;
434;SDS011;204;48.942;9.256;2023-03-04T08:48:51;38.60;;;25.73;;
434;SDS011;204;48.942;9.256;2023-03-04T08:51:17;42.10;;;28.40;;
434;SDS011;204;48.942;9.256;2023-03-04T08:53:43;41.35;;;30.25;;
434;SDS011;204;48.942;9.256;2023-03-04T08:56:09;43.90;;;30.33;;
434;SDS011;204;48.942;9.256;2023-03-04T08:58:35;49.97;;;36.00;;
434;SDS011;204;48.942;9.256;2023-03-04T09:01:01;37.73;;;27.57;;
434;SDS011;204;48.942;9.256;2023-03-04T09:03:28;32.65;;;23.95;;
434;SDS011;204;48.942;9.256;2023-03-04T09:05:55;31.00;;;21.92;;
434;SDS011;204;48.942;9.256;2023-03-04T09:08:21;35.10;;;25.27;;
434;SDS011;204;48.942;9.256;2023-03-04T09:10:50;34.80;;;25.80;;
434;SDS011;204;48.942;9.256;2023-03-04T09:13:18;38.78;;;29.05;;
434;SDS011;204;48.942;9.256;2023-03-04T09:15:45;37.92;;;26.70;;
434;SDS011;204;48.942;9.256;2023-03-04T09:18:11;46.38;;;28.67;;
434;SDS011;204;48.942;9.256;2023-03-04T09:20:38;54.53;;;33.72;;
434;SDS011;204;48.942;9.256;2023-03-04T09:23:04;45.85;;;31.63;;
434;SDS011;204;48.942;9.256;2023-03-04T09:25:29;40.47;;;26.13;;
434;SDS011;204;48.942;9.256;2023-03-04T09:27:55;37.13;;;25.83;;
434;SDS011;204;48.942;9.256;2023-03-04T09:30:21;50.33;;;36.60;;
434;SDS011;204;48.942;9.256;2023-03-04T09:32:46;35.03;;;24.80;;
434;SDS011;204;48.942;9.256;2023-03-04T09:35:12;36.10;;;25.73;;
434;SDS011;204;48.942;9.256;2023-03-04T09:37:38;66.23;;;46.20;;
434;SDS011;204;48.942;9.256;2023-03-04T09:40:04;48.00;;;34.43;;
434;SDS011;204;48.942;9.256;2023-03-04T09:42:36;51.15;;;36.70;;
434;SDS011;204;48.942;9.256;2023-03-04T09:45:07;42.53;;;29.83;;
434;SDS011;204;48.942;9.256;2023-03-04T09:47:36;38.95;;;29.63;;
434;SDS011;204;48.942;9.256;2023-03-04T09:50:04;41.65;;;31.50;;
434;SDS011;204;48.942;9.256;2023-03-04T09:55:22;30.55;;;22.83;;
434;SDS011;204;48.942;9.256;2023-03-04T10:03:45;28.75;;;18.55;;
434;SDS011;204;48.942;9.256;2023-03-04T10:06:17;24.83;;;19.42;;
434;SDS011;204;48.942;9.256;2023-03-04T10:11:47;24.33;;;19.20;;
434;SDS011;204;48.942;9.256;2023-03-04T10:16:59;27.48;;;19.80;;
434;SDS011;204;48.942;9.256;2023-03-04T10:19:37;29.02;;;20.02;;
434;SDS011;204;48.942;9.256;2023-03-04T10:27:48;32.15;;;26.52;;
434;SDS011;204;48.942;9.256;2023-03-04T10:30:57;40.15;;;31.35;;
434;SDS011;204;48.942;9.256;2023-03-04T10:33:12;27.85;;;20.95;;
434;SDS011;204;48.942;9.256;2023-03-04T10:35:45;26.08;;;21.10;;
434;SDS011;204;48.942;9.256;2023-03-04T10:38:24;24.77;;;19.00;;
434;SDS011;204;48.942;9.256;2023-03-04T10:40:50;25.90;;;20.37;;
434;SDS011;204;48.942;9.256;2023-03-04T10:43:19;28.03;;;21.27;;
434;SDS011;204;48.942;9.256;2023-03-04T10:45:46;24.08;;;20.92;;
434;SDS011;204;48.942;9.256;2023-03-04T10:48:21;25.63;;;21.23;;
434;SDS011;204;48.942;9.256;2023-03-04T10:50:48;26.30;;;21.60;;
434;SDS011;204;48.942;9.256;2023-03-04T10:53:24;27.30;;;21.27;;
434;SDS011;204;48.942;9.256;2023-03-04T10:55:52;28.80;;;18.98;;
434;SDS011;204;48.942;9.256;2023-03-04T10:58:17;25.43;;;20.13;;
434;SDS011;204;48.942;9.256;2023-03-04T11:00:49;27.58;;;20.63;;
434;SDS011;204;48.942;9.256;2023-03-04T11:06:15;27.63;;;22.80;;
434;SDS011;204;48.942;9.256;2023-03-04T11:08:41;26.70;;;20.88;;
434;SDS011;204;48.942;9.256;2023-03-04T11:13:57;32.70;;;22.55;;
434;SDS011;204;48.942;9.256;2023-03-04T11:16:27;27.67;;;21.60;;
434;SDS011;204;48.942;9.256;2023-03-04T11:18:59;29.98;;;24.90;;
434;SDS011;204;48.942;9.256;2023-03-04T11:21:30;30.92;;;24.17;;
434;SDS011;204;48.942;9.256;2023-03-04T11:24:02;31.83;;;24.75;;
434;SDS011;204;48.942;9.256;2023-03-04T11:26:50;35.83;;;25.55;;
434;SDS011;204;48.942;9.256;2023-03-04T11:29:34;24.85;;;22.10;;
434;SDS011;204;48.942;9.256;2023-03-04T11:37:40;28.42;;;22.92;;
434;SDS011;204;48.942;9.256;2023-03-04T11:42:50;29.15;;;25.05;;
434;SDS011;204;48.942;9.256;2023-03-04T11:48:34;28.77;;;21.80;;
434;SDS011;204;48.942;9.256;2023-03-04T11:56:46;35.97;;;24.90;;
434;SDS011;204;48.942;9.256;2023-03-04T12:07:31;33.97;;;27.02;;
434;SDS011;204;48.942;9.256;2023-03-04T12:15:48;36.85;;;28.05;;
434;SDS011;204;48.942;9.256;2023-03-04T12:18:25;39.10;;;30.05;;
434;SDS011;204;48.942;9.256;2023-03-04T12:20:58;50.05;;;31.98;;
434;SDS011;204;48.942;9.256;2023-03-04T12:23:51;41.05;;;29.98;;
434;SDS011;204;48.942;9.256;2023-03-04T12:29:10;46.28;;;31.98;;
434;SDS011;204;48.942;9.256;2023-03-04T12:32:02;42.15;;;30.92;;
434;SDS011;204;48.942;9.256;2023-03-04T12:34:58;39.55;;;30.40;;
434;SDS011;204;48.942;9.256;2023-03-04T12:43:12;42.03;;;30.77;;
434;SDS011;204;48.942;9.256;2023-03-04T12:46:03;48.63;;;31.50;;
434;SDS011;204;48.942;9.256;2023-03-04T12:51:55;41.35;;;31.83;;
434;SDS011;204;48.942;9.256;2023-03-04T12:54:36;41.88;;;29.75;;
434;SDS011;204;48.942;9.256;2023-03-04T12:59:35;40.15;;;30.70;;
434;SDS011;204;48.942;9.256;2023-03-04T13:04:59;42.42;;;31.65;;
434;SDS011;204;48.942;9.256;2023-03-04T13:10:30;40.92;;;30.70;;
434;SDS011;204;48.942;9.256;2023-03-04T13:12:56;44.10;;;30.00;;
434;SDS011;204;48.942;9.256;2023-03-04T13:17:50;40.63;;;29.97;;
434;SDS011;204;48.942;9.256;2023-03-04T13:20:23;49.50;;;34.70;;
434;SDS011;204;48.942;9.256;2023-03-04T13:23:01;40.10;;;28.23;;
434;SDS011;204;48.942;9.256;2023-03-04T13:35:58;35.45;;;27.35;;
434;SDS011;204;48.942;9.256;2023-03-04T13:44:01;34.83;;;26.95;;
434;SDS011;204;48.942;9.256;2023-03-04T13:46:47;39.60;;;28.17;;
434;SDS011;204;48.942;9.256;2023-03-04T13:49:19;42.90;;;27.77;;
434;SDS011;204;48.942;9.256;2023-03-04T13:51:48;37.17;;;26.35;;
434;SDS011;204;48.942;9.256;2023-03-04T13:56:46;33.88;;;25.15;;
434;SDS011;204;48.942;9.256;2023-03-04T13:59:33;33.35;;;27.08;;
434;SDS011;204;48.942;9.256;2023-03-04T14:02:12;33.13;;;25.98;;
434;SDS011;204;48.942;9.256;2023-03-04T14:04:44;31.38;;;24.60;;
434;SDS011;204;48.942;9.256;2023-03-04T14:09:57;34.50;;;26.13;;
434;SDS011;204;48.942;9.256;2023-03-04T14:12:56;31.88;;;25.48;;
434;SDS011;204;48.942;9.256;2023-03-04T14:15:26;35.33;;;23.85;;
434;SDS011;204;48.942;9.256;2023-03-04T14:17:55;32.50;;;24.42;;
434;SDS011;204;48.942;9.256;2023-03-04T14:20:47;33.97;;;24.63;;
434;SDS011;204;48.942;9.256;2023-03-04T14:23:22;33.35;;;23.95;;
434;SDS011;204;48.942;9.256;2023-03-04T14:25:51;38.58;;;25.60;;
434;SDS011;204;48.942;9.256;2023-03-04T14:28:26;35.75;;;26.35;;
434;SDS011;204;48.942;9.256;2023-03-04T14:30:53;43.20;;;25.30;;
434;SDS011;204;48.942;9.256;2023-03-04T14:33:22;37.65;;;26.20;;
434;SDS011;204;48.942;9.256;2023-03-04T14:35:50;34.97;;;24.95;;
434;SDS011;204;48.942;9.256;2023-03-04T14:41:04;30.30;;;24.38;;
434;SDS011;204;48.942;9.256;2023-03-04T14:43:46;35.38;;;25.48;;
434;SDS011;204;48.942;9.256;2023-03-04T14:46:19;33.67;;;25.92;;
434;SDS011;204;48.942;9.256;2023-03-04T14:48:49;30.77;;;23.85;;
434;SDS011;204;48.942;9.256;2023-03-04T14:53:57;32.08;;;25.35;;
434;SDS011;204;48.942;9.256;2023-03-04T14:56:30;31.67;;;24.33;;
434;SDS011;204;48.942;9.256;2023-03-04T14:58:58;30.95;;;25.45;;
434;SDS011;204;48.942;9.256;2023-03-04T15:01:28;37.07;;;24.47;;
434;SDS011;204;48.942;9.256;2023-03-04T15:06:32;37.63;;;27.30;;
434;SDS011;204;48.942;9.256;2023-03-04T15:09:00;34.33;;;25.95;;
434;SDS011;204;48.942;9.256;2023-03-04T15:11:46;32.55;;;24.80;;
434;SDS011;204;48.942;9.256;2023-03-04T15:22:33;31.92;;;25.20;;
434;SDS011;204;48.942;9.256;2023-03-04T15:25:00;34.08;;;24.92;;
434;SDS011;204;48.942;9.256;2023-03-04T15:27:27;33.03;;;25.58;;
434;SDS011;204;48.942;9.256;2023-03-04T15:29:55;30.48;;;23.77;;
434;SDS011;204;48.942;9.256;2023-03-04T15:32:29;31.13;;;25.17;;
434;SDS011;204;48.942;9.256;2023-03-04T15:34:55;30.88;;;23.40;;
434;SDS011;204;48.942;9.256;2023-03-04T15:37:21;32.50;;;24.03;;
434;SDS011;204;48.942;9.256;2023-03-04T15:39:52;34.45;;;24.92;;
434;SDS011;204;48.942;9.256;2023-03-04T15:42:20;31.90;;;25.13;;
434;SDS011;204;48.942;9.256;2023-03-04T15:44:45;32.07;;;25.27;;
434;SDS011;204;48.942;9.256;2023-03-04T15:47:11;32.07;;;23.80;;
434;SDS011;204;48.942;9.256;2023-03-04T15:49:41;29.38;;;24.08;;
434;SDS011;204;48.942;9.256;2023-03-04T15:52:20;31.75;;;23.38;;
434;SDS011;204;48.942;9.256;2023-03-04T15:54:47;31.02;;;24.45;;
434;SDS011;204;48.942;9.256;2023-03-04T15:57:20;30.02;;;23.20;;
434;SDS011;204;48.942;9.256;2023-03-04T15:59:48;37.05;;;28.90;;
434;SDS011;204;48.942;9.256;2023-03-04T16:02:17;32.25;;;22.95;;
434;SDS011;204;48.942;9.256;2023-03-04T16:04:45;33.90;;;24.35;;
434;SDS011;204;48.942;9.256;2023-03-04T16:07:15;35.93;;;24.83;;
434;SDS011;204;48.942;9.256;2023-03-04T16:09:47;31.27;;;24.42;;
434;SDS011;204;48.942;9.256;2023-03-04T16:12:17;33.38;;;23.13;;
434;SDS011;204;48.942;9.256;2023-03-04T16:14:43;29.87;;;23.10;;
434;SDS011;204;48.942;9.256;2023-03-04T16:17:10;40.78;;;30.30;;
434;SDS011;204;48.942;9.256;2023-03-04T16:19:36;30.80;;;24.33;;
434;SDS011;204;48.942;9.256;2023-03-04T16:22:02;30.77;;;22.40;;
434;SDS011;204;48.942;9.256;2023-03-04T16:24:28;33.30;;;24.35;;
434;SDS011;204;48.942;9.256;2023-03-04T16:26:56;44.38;;;30.60;;
434;SDS011;204;48.942;9.256;2023-03-04T16:29:22;35.07;;;24.07;;
434;SDS011;204;48.942;9.256;2023-03-04T16:31:48;36.00;;;27.30;;
434;SDS011;204;48.942;9.256;2023-03-04T16:34:13;32.80;;;25.13;;
434;SDS011;204;48.942;9.256;2023-03-04T16:36:39;30.43;;;24.13;;
434;SDS011;204;48.942;9.256;2023-03-04T16:39:05;33.20;;;24.23;;
434;SDS011;204;48.942;9.256;2023-03-04T16:41:36;25.63;;;21.13;;
434;SDS011;204;48.942;9.256;2023-03-04T16:44:02;31.67;;;24.50;;
434;SDS011;204;48.942;9.256;2023-03-04T16:46:28;37.20;;;26.87;;
434;SDS011;204;48.942;9.256;2023-03-04T16:48:54;33.27;;;25.10;;
434;SDS011;204;48.942;9.256;2023-03-04T16:51:20;29.87;;;24.00;;
434;SDS011;204;48.942;9.256;2023-03-04T16:53:48;32.70;;;23.95;;
434;SDS011;204;48.942;9.256;2023-03-04T16:56:20;31.80;;;23.90;;
434;SDS011;204;48.942;9.256;2023-03-04T16:58:46;34.33;;;24.23;;
434;SDS011;204;48.942;9.256;2023-03-04T17:01:19;28.70;;;23.60;;
434;SDS011;204;48.942;9.256;2023-03-04T17:03:47;33.33;;;21.55;;
434;SDS011;204;48.942;9.256;2023-03-04T17:06:13;56.13;;;25.43;;
434;SDS011;204;48.942;9.256;2023-03-04T17:08:40;33.38;;;23.75;;
434;SDS011;204;48.942;9.256;2023-03-04T17:11:06;30.48;;;23.60;;
434;SDS011;204;48.942;9.256;2023-03-04T17:13:31;30.70;;;22.07;;
434;SDS011;204;48.942;9.256;2023-03-04T17:16:00;29.67;;;22.30;;
434;SDS011;204;48.942;9.256;2023-03-04T17:18:27;31.70;;;23.88;;
434;SDS011;204;48.942;9.256;2023-03-04T17:20:53;32.00;;;27.37;;
434;SDS011;204;48.942;9.256;2023-03-04T17:23:25;41.95;;;28.85;;